Country
Station

 

Weather  for  Spartanburg Memorial  -  United States    United States

  
9 °C (48 °F)
    
 
 

Current METAR for Spartanburg Memorial is :

KSPA 192355Z AUTO 00000KT 10SM CLR 09/M06 A3030 RMK AO2

 

This is a report for Spartanburg Memorial - United States.
 
The report was made a moment ago, at 23:55 UTC .
The wind was calm.
 
The temperature was 9 °C (48 °F), with a dew-point at -6 °C (21 °F).
The atmospheric pressure was 1026 hPa (30.30 inHg).
The relative humidity was 34.0%.
 
The sky was clear.
 
The overall visibility was 16.1 kilometers (10.0 miles).
 

 
 
 
 

Country :   A   B   C   D   E   F   G   H   I   J   K   L   M   N   O   P   Q   R   S   T   U   V   W   Y   Z

 

Site Info  |  Disclaimer  |  Credits  |  Privacy
Contact us  |  Add to favorites
© 2013-2019 METARs - All rights reserved